sensor_id;sensor_type;location;lat;lon;timestamp;P1;durP1;ratioP1;P2;durP2;ratioP2
52586;SDS011;38480;52.724;6.436;2023-11-19T00:00:20;127.63;;;47.30;;
52586;SDS011;38480;52.724;6.436;2023-11-19T00:02:46;99.33;;;40.87;;
52586;SDS011;38480;52.724;6.436;2023-11-19T00:05:12;107.53;;;41.97;;
52586;SDS011;38480;52.724;6.436;2023-11-19T00:07:39;74.70;;;37.23;;
52586;SDS011;38480;52.724;6.436;2023-11-19T00:10:08;105.27;;;41.53;;
52586;SDS011;38480;52.724;6.436;2023-11-19T00:12:35;122.73;;;43.97;;
52586;SDS011;38480;52.724;6.436;2023-11-19T00:15:02;91.67;;;37.67;;
52586;SDS011;38480;52.724;6.436;2023-11-19T00:17:28;95.13;;;39.83;;
52586;SDS011;38480;52.724;6.436;2023-11-19T00:19:54;86.77;;;38.13;;
52586;SDS011;38480;52.724;6.436;2023-11-19T00:22:20;74.13;;;35.47;;
52586;SDS011;38480;52.724;6.436;2023-11-19T00:24:47;94.50;;;37.47;;
52586;SDS011;38480;52.724;6.436;2023-11-19T00:27:13;90.73;;;36.53;;
52586;SDS011;38480;52.724;6.436;2023-11-19T00:29:40;69.40;;;31.60;;
52586;SDS011;38480;52.724;6.436;2023-11-19T00:32:07;66.17;;;29.80;;
52586;SDS011;38480;52.724;6.436;2023-11-19T00:34:33;59.13;;;26.57;;
52586;SDS011;38480;52.724;6.436;2023-11-19T00:36:59;71.37;;;27.53;;
52586;SDS011;38480;52.724;6.436;2023-11-19T00:39:25;53.27;;;23.43;;
52586;SDS011;38480;52.724;6.436;2023-11-19T00:41:51;55.37;;;21.50;;
52586;SDS011;38480;52.724;6.436;2023-11-19T00:44:17;38.50;;;17.27;;
52586;SDS011;38480;52.724;6.436;2023-11-19T00:46:44;52.10;;;17.70;;
52586;SDS011;38480;52.724;6.436;2023-11-19T00:49:10;46.67;;;14.57;;
52586;SDS011;38480;52.724;6.436;2023-11-19T00:51:37;43.73;;;17.07;;
52586;SDS011;38480;52.724;6.436;2023-11-19T00:54:03;56.73;;;15.60;;
52586;SDS011;38480;52.724;6.436;2023-11-19T00:56:29;42.07;;;14.53;;
52586;SDS011;38480;52.724;6.436;2023-11-19T00:58:55;43.93;;;14.83;;
52586;SDS011;38480;52.724;6.436;2023-11-19T01:01:21;58.97;;;17.70;;
52586;SDS011;38480;52.724;6.436;2023-11-19T01:03:48;39.83;;;14.73;;
52586;SDS011;38480;52.724;6.436;2023-11-19T01:06:14;45.00;;;14.43;;
52586;SDS011;38480;52.724;6.436;2023-11-19T01:08:42;37.50;;;12.80;;
52586;SDS011;38480;52.724;6.436;2023-11-19T01:11:18;46.97;;;15.40;;
52586;SDS011;38480;52.724;6.436;2023-11-19T01:13:45;43.60;;;13.97;;
52586;SDS011;38480;52.724;6.436;2023-11-19T01:16:11;38.00;;;12.53;;
52586;SDS011;38480;52.724;6.436;2023-11-19T01:18:38;37.43;;;13.77;;
52586;SDS011;38480;52.724;6.436;2023-11-19T01:21:04;31.20;;;10.07;;
52586;SDS011;38480;52.724;6.436;2023-11-19T01:23:30;36.23;;;11.77;;
52586;SDS011;38480;52.724;6.436;2023-11-19T01:25:57;39.50;;;11.63;;
52586;SDS011;38480;52.724;6.436;2023-11-19T01:28:23;34.87;;;10.90;;
52586;SDS011;38480;52.724;6.436;2023-11-19T01:30:52;31.70;;;9.80;;
52586;SDS011;38480;52.724;6.436;2023-11-19T01:33:19;36.60;;;11.67;;
52586;SDS011;38480;52.724;6.436;2023-11-19T01:35:46;42.10;;;12.47;;
52586;SDS011;38480;52.724;6.436;2023-11-19T01:38:12;40.67;;;10.23;;
52586;SDS011;38480;52.724;6.436;2023-11-19T01:40:38;43.47;;;10.57;;
52586;SDS011;38480;52.724;6.436;2023-11-19T01:43:07;39.43;;;10.23;;
52586;SDS011;38480;52.724;6.436;2023-11-19T01:45:36;37.57;;;10.97;;
52586;SDS011;38480;52.724;6.436;2023-11-19T01:48:03;39.17;;;11.67;;
52586;SDS011;38480;52.724;6.436;2023-11-19T01:50:29;32.97;;;8.70;;
52586;SDS011;38480;52.724;6.436;2023-11-19T01:52:55;31.57;;;9.37;;
52586;SDS011;38480;52.724;6.436;2023-11-19T01:55:23;39.13;;;9.77;;
52586;SDS011;38480;52.724;6.436;2023-11-19T01:57:49;38.87;;;10.10;;
52586;SDS011;38480;52.724;6.436;2023-11-19T02:00:16;35.47;;;8.23;;
52586;SDS011;38480;52.724;6.436;2023-11-19T02:02:44;36.70;;;8.53;;
52586;SDS011;38480;52.724;6.436;2023-11-19T02:05:11;39.53;;;10.90;;
52586;SDS011;38480;52.724;6.436;2023-11-19T02:07:41;38.67;;;6.90;;
52586;SDS011;38480;52.724;6.436;2023-11-19T02:10:07;54.70;;;9.77;;
52586;SDS011;38480;52.724;6.436;2023-11-19T02:12:42;40.53;;;7.67;;
52586;SDS011;38480;52.724;6.436;2023-11-19T02:15:09;32.97;;;8.07;;
52586;SDS011;38480;52.724;6.436;2023-11-19T02:17:35;34.60;;;7.67;;
52586;SDS011;38480;52.724;6.436;2023-11-19T02:20:03;36.83;;;7.93;;
52586;SDS011;38480;52.724;6.436;2023-11-19T02:22:34;42.27;;;7.80;;
52586;SDS011;38480;52.724;6.436;2023-11-19T02:25:00;39.37;;;7.67;;
52586;SDS011;38480;52.724;6.436;2023-11-19T02:30:14;35.47;;;7.67;;
52586;SDS011;38480;52.724;6.436;2023-11-19T02:32:41;45.00;;;8.03;;
52586;SDS011;38480;52.724;6.436;2023-11-19T02:35:07;40.77;;;7.47;;
52586;SDS011;38480;52.724;6.436;2023-11-19T02:37:34;38.80;;;7.73;;
52586;SDS011;38480;52.724;6.436;2023-11-19T02:39:59;38.60;;;8.70;;
52586;SDS011;38480;52.724;6.436;2023-11-19T02:42:28;41.20;;;6.97;;
52586;SDS011;38480;52.724;6.436;2023-11-19T02:44:54;36.70;;;6.97;;
52586;SDS011;38480;52.724;6.436;2023-11-19T02:47:20;43.87;;;9.10;;
52586;SDS011;38480;52.724;6.436;2023-11-19T02:49:48;38.70;;;7.10;;
52586;SDS011;38480;52.724;6.436;2023-11-19T02:52:15;37.07;;;8.37;;
52586;SDS011;38480;52.724;6.436;2023-11-19T02:54:41;37.57;;;7.57;;
52586;SDS011;38480;52.724;6.436;2023-11-19T02:57:07;48.53;;;8.20;;
52586;SDS011;38480;52.724;6.436;2023-11-19T02:59:38;45.47;;;8.90;;
52586;SDS011;38480;52.724;6.436;2023-11-19T03:02:07;48.47;;;7.57;;
52586;SDS011;38480;52.724;6.436;2023-11-19T03:04:39;40.95;;;8.13;;
52586;SDS011;38480;52.724;6.436;2023-11-19T03:07:06;47.93;;;7.20;;
52586;SDS011;38480;52.724;6.436;2023-11-19T03:09:32;41.63;;;8.63;;
52586;SDS011;38480;52.724;6.436;2023-11-19T03:12:01;39.47;;;7.43;;
52586;SDS011;38480;52.724;6.436;2023-11-19T03:14:27;46.77;;;7.33;;
52586;SDS011;38480;52.724;6.436;2023-11-19T03:16:53;44.40;;;8.77;;
52586;SDS011;38480;52.724;6.436;2023-11-19T03:19:19;51.70;;;8.37;;
52586;SDS011;38480;52.724;6.436;2023-11-19T03:21:46;49.00;;;8.80;;
52586;SDS011;38480;52.724;6.436;2023-11-19T03:24:13;47.03;;;9.00;;
52586;SDS011;38480;52.724;6.436;2023-11-19T03:26:40;54.17;;;8.90;;
52586;SDS011;38480;52.724;6.436;2023-11-19T03:29:07;38.10;;;7.60;;
52586;SDS011;38480;52.724;6.436;2023-11-19T03:31:33;42.90;;;9.63;;
52586;SDS011;38480;52.724;6.436;2023-11-19T03:33:59;38.23;;;7.63;;
52586;SDS011;38480;52.724;6.436;2023-11-19T03:36:31;42.10;;;7.57;;
52586;SDS011;38480;52.724;6.436;2023-11-19T03:38:57;50.50;;;11.23;;
52586;SDS011;38480;52.724;6.436;2023-11-19T03:41:23;53.23;;;8.57;;
52586;SDS011;38480;52.724;6.436;2023-11-19T03:43:49;58.10;;;8.67;;
52586;SDS011;38480;52.724;6.436;2023-11-19T03:46:19;43.77;;;8.03;;
52586;SDS011;38480;52.724;6.436;2023-11-19T03:48:48;48.57;;;9.07;;
52586;SDS011;38480;52.724;6.436;2023-11-19T03:51:15;60.47;;;11.80;;
52586;SDS011;38480;52.724;6.436;2023-11-19T03:53:44;56.10;;;8.50;;
52586;SDS011;38480;52.724;6.436;2023-11-19T03:56:10;47.60;;;7.73;;
52586;SDS011;38480;52.724;6.436;2023-11-19T03:58:37;50.83;;;8.27;;
52586;SDS011;38480;52.724;6.436;2023-11-19T04:01:03;60.40;;;10.80;;
52586;SDS011;38480;52.724;6.436;2023-11-19T04:03:29;52.47;;;9.43;;
52586;SDS011;38480;52.724;6.436;2023-11-19T04:05:56;43.37;;;8.23;;
52586;SDS011;38480;52.724;6.436;2023-11-19T04:08:22;58.30;;;9.43;;
52586;SDS011;38480;52.724;6.436;2023-11-19T04:10:48;55.40;;;10.07;;
52586;SDS011;38480;52.724;6.436;2023-11-19T04:13:14;47.07;;;9.07;;
52586;SDS011;38480;52.724;6.436;2023-11-19T04:15:40;66.10;;;10.57;;
52586;SDS011;38480;52.724;6.436;2023-11-19T04:18:08;58.67;;;8.93;;
52586;SDS011;38480;52.724;6.436;2023-11-19T04:20:34;55.90;;;10.37;;
52586;SDS011;38480;52.724;6.436;2023-11-19T04:23:01;49.97;;;10.50;;
52586;SDS011;38480;52.724;6.436;2023-11-19T04:25:27;58.70;;;9.13;;
52586;SDS011;38480;52.724;6.436;2023-11-19T04:27:53;57.97;;;8.93;;
52586;SDS011;38480;52.724;6.436;2023-11-19T04:30:19;51.33;;;8.57;;
52586;SDS011;38480;52.724;6.436;2023-11-19T04:32:46;44.77;;;8.30;;
52586;SDS011;38480;52.724;6.436;2023-11-19T04:35:13;48.27;;;7.90;;
52586;SDS011;38480;52.724;6.436;2023-11-19T04:37:41;47.53;;;8.27;;
52586;SDS011;38480;52.724;6.436;2023-11-19T04:40:07;47.80;;;9.03;;
52586;SDS011;38480;52.724;6.436;2023-11-19T04:42:34;52.67;;;9.20;;
52586;SDS011;38480;52.724;6.436;2023-11-19T04:45:00;43.93;;;9.00;;
52586;SDS011;38480;52.724;6.436;2023-11-19T04:47:26;63.20;;;10.87;;
52586;SDS011;38480;52.724;6.436;2023-11-19T04:49:52;52.47;;;8.97;;
52586;SDS011;38480;52.724;6.436;2023-11-19T04:52:18;49.60;;;9.53;;
52586;SDS011;38480;52.724;6.436;2023-11-19T04:54:44;54.50;;;8.77;;
52586;SDS011;38480;52.724;6.436;2023-11-19T04:57:10;52.03;;;9.63;;
52586;SDS011;38480;52.724;6.436;2023-11-19T04:59:37;56.20;;;8.90;;
52586;SDS011;38480;52.724;6.436;2023-11-19T05:02:03;52.93;;;8.93;;
52586;SDS011;38480;52.724;6.436;2023-11-19T05:04:30;46.60;;;9.93;;
52586;SDS011;38480;52.724;6.436;2023-11-19T05:06:56;54.27;;;8.83;;
52586;SDS011;38480;52.724;6.436;2023-11-19T05:09:22;56.73;;;9.43;;
52586;SDS011;38480;52.724;6.436;2023-11-19T05:11:48;44.87;;;10.87;;
52586;SDS011;38480;52.724;6.436;2023-11-19T05:14:14;50.53;;;9.00;;
52586;SDS011;38480;52.724;6.436;2023-11-19T05:16:41;49.10;;;8.83;;
52586;SDS011;38480;52.724;6.436;2023-11-19T05:19:08;49.70;;;9.93;;
52586;SDS011;38480;52.724;6.436;2023-11-19T05:21:34;50.20;;;8.33;;
52586;SDS011;38480;52.724;6.436;2023-11-19T05:24:00;57.00;;;8.10;;
52586;SDS011;38480;52.724;6.436;2023-11-19T05:26:29;55.67;;;8.97;;
52586;SDS011;38480;52.724;6.436;2023-11-19T05:28:55;54.97;;;8.50;;
52586;SDS011;38480;52.724;6.436;2023-11-19T05:31:21;58.23;;;9.47;;
52586;SDS011;38480;52.724;6.436;2023-11-19T05:33:47;52.83;;;10.67;;
52586;SDS011;38480;52.724;6.436;2023-11-19T05:36:14;58.40;;;10.40;;
52586;SDS011;38480;52.724;6.436;2023-11-19T05:38:40;53.57;;;9.53;;
52586;SDS011;38480;52.724;6.436;2023-11-19T05:41:06;47.93;;;7.43;;
52586;SDS011;38480;52.724;6.436;2023-11-19T05:43:32;54.20;;;10.27;;
52586;SDS011;38480;52.724;6.436;2023-11-19T05:45:58;45.00;;;9.43;;
52586;SDS011;38480;52.724;6.436;2023-11-19T05:48:25;48.27;;;10.17;;
52586;SDS011;38480;52.724;6.436;2023-11-19T05:50:51;49.17;;;8.57;;
52586;SDS011;38480;52.724;6.436;2023-11-19T05:53:18;45.87;;;9.43;;
52586;SDS011;38480;52.724;6.436;2023-11-19T05:55:44;54.13;;;9.00;;
52586;SDS011;38480;52.724;6.436;2023-11-19T05:58:14;44.73;;;9.00;;
52586;SDS011;38480;52.724;6.436;2023-11-19T06:00:41;49.07;;;10.03;;
52586;SDS011;38480;52.724;6.436;2023-11-19T06:03:07;47.13;;;8.67;;
52586;SDS011;38480;52.724;6.436;2023-11-19T06:05:33;49.47;;;9.80;;
52586;SDS011;38480;52.724;6.436;2023-11-19T06:07:59;46.50;;;7.33;;
52586;SDS011;38480;52.724;6.436;2023-11-19T06:10:25;53.10;;;9.37;;
52586;SDS011;38480;52.724;6.436;2023-11-19T06:12:57;46.87;;;8.30;;
52586;SDS011;38480;52.724;6.436;2023-11-19T06:15:24;49.53;;;8.60;;
52586;SDS011;38480;52.724;6.436;2023-11-19T06:17:51;53.20;;;8.93;;
52586;SDS011;38480;52.724;6.436;2023-11-19T06:20:17;59.60;;;11.90;;
52586;SDS011;38480;52.724;6.436;2023-11-19T06:22:45;53.23;;;8.53;;
52586;SDS011;38480;52.724;6.436;2023-11-19T06:25:11;47.73;;;7.77;;
52586;SDS011;38480;52.724;6.436;2023-11-19T06:27:39;59.07;;;11.10;;
52586;SDS011;38480;52.724;6.436;2023-11-19T06:30:05;49.60;;;9.00;;
52586;SDS011;38480;52.724;6.436;2023-11-19T06:32:32;56.73;;;9.23;;
52586;SDS011;38480;52.724;6.436;2023-11-19T06:34:58;53.57;;;9.20;;
52586;SDS011;38480;52.724;6.436;2023-11-19T06:37:24;53.73;;;9.20;;
52586;SDS011;38480;52.724;6.436;2023-11-19T06:39:50;43.83;;;8.33;;
52586;SDS011;38480;52.724;6.436;2023-11-19T06:42:16;54.77;;;9.13;;
52586;SDS011;38480;52.724;6.436;2023-11-19T06:44:42;51.93;;;9.13;;
52586;SDS011;38480;52.724;6.436;2023-11-19T06:47:08;49.50;;;11.30;;
52586;SDS011;38480;52.724;6.436;2023-11-19T06:49:34;46.60;;;9.30;;
52586;SDS011;38480;52.724;6.436;2023-11-19T06:52:00;63.30;;;8.40;;
52586;SDS011;38480;52.724;6.436;2023-11-19T06:54:26;45.10;;;8.87;;
52586;SDS011;38480;52.724;6.436;2023-11-19T06:56:52;44.97;;;7.93;;
52586;SDS011;38480;52.724;6.436;2023-11-19T06:59:18;48.27;;;8.37;;
52586;SDS011;38480;52.724;6.436;2023-11-19T07:01:44;48.33;;;8.30;;
52586;SDS011;38480;52.724;6.436;2023-11-19T07:04:11;44.27;;;8.17;;
52586;SDS011;38480;52.724;6.436;2023-11-19T07:06:37;43.73;;;8.07;;
52586;SDS011;38480;52.724;6.436;2023-11-19T07:09:06;42.60;;;8.23;;
52586;SDS011;38480;52.724;6.436;2023-11-19T07:11:38;50.80;;;10.13;;
52586;SDS011;38480;52.724;6.436;2023-11-19T07:14:05;43.87;;;9.63;;
52586;SDS011;38480;52.724;6.436;2023-11-19T07:16:32;52.07;;;9.83;;
52586;SDS011;38480;52.724;6.436;2023-11-19T07:18:59;53.77;;;9.67;;
52586;SDS011;38480;52.724;6.436;2023-11-19T07:21:26;38.27;;;7.83;;
52586;SDS011;38480;52.724;6.436;2023-11-19T07:23:53;45.00;;;8.17;;
52586;SDS011;38480;52.724;6.436;2023-11-19T07:26:19;45.13;;;8.23;;
52586;SDS011;38480;52.724;6.436;2023-11-19T07:28:45;51.03;;;8.97;;
52586;SDS011;38480;52.724;6.436;2023-11-19T07:31:12;42.97;;;8.53;;
52586;SDS011;38480;52.724;6.436;2023-11-19T07:33:41;43.37;;;9.03;;
52586;SDS011;38480;52.724;6.436;2023-11-19T07:36:08;40.63;;;8.90;;
52586;SDS011;38480;52.724;6.436;2023-11-19T07:38:34;44.97;;;8.50;;
52586;SDS011;38480;52.724;6.436;2023-11-19T07:41:00;50.47;;;7.20;;
52586;SDS011;38480;52.724;6.436;2023-11-19T07:43:26;49.03;;;7.30;;
52586;SDS011;38480;52.724;6.436;2023-11-19T07:45:52;39.80;;;7.10;;
52586;SDS011;38480;52.724;6.436;2023-11-19T07:48:18;54.03;;;8.43;;
52586;SDS011;38480;52.724;6.436;2023-11-19T07:50:54;51.33;;;8.47;;
52586;SDS011;38480;52.724;6.436;2023-11-19T07:53:21;42.05;;;8.20;;
52586;SDS011;38480;52.724;6.436;2023-11-19T07:55:47;47.77;;;8.47;;
52586;SDS011;38480;52.724;6.436;2023-11-19T07:58:13;39.37;;;7.73;;
52586;SDS011;38480;52.724;6.436;2023-11-19T08:00:39;43.87;;;9.17;;
52586;SDS011;38480;52.724;6.436;2023-11-19T08:03:05;41.40;;;8.67;;
52586;SDS011;38480;52.724;6.436;2023-11-19T08:05:31;49.73;;;8.03;;
52586;SDS011;38480;52.724;6.436;2023-11-19T08:07:57;47.37;;;8.00;;
52586;SDS011;38480;52.724;6.436;2023-11-19T08:10:23;38.33;;;8.43;;
52586;SDS011;38480;52.724;6.436;2023-11-19T08:12:49;40.53;;;7.03;;
52586;SDS011;38480;52.724;6.436;2023-11-19T08:15:16;43.97;;;9.73;;
52586;SDS011;38480;52.724;6.436;2023-11-19T08:17:42;37.83;;;7.20;;
52586;SDS011;38480;52.724;6.436;2023-11-19T08:20:08;47.70;;;7.73;;
52586;SDS011;38480;52.724;6.436;2023-11-19T08:22:38;43.67;;;6.67;;
52586;SDS011;38480;52.724;6.436;2023-11-19T08:25:04;52.57;;;7.90;;
52586;SDS011;38480;52.724;6.436;2023-11-19T08:27:31;47.87;;;8.90;;
52586;SDS011;38480;52.724;6.436;2023-11-19T08:29:57;44.17;;;7.77;;
52586;SDS011;38480;52.724;6.436;2023-11-19T08:32:24;50.33;;;9.47;;
52586;SDS011;38480;52.724;6.436;2023-11-19T08:34:50;49.80;;;7.30;;
52586;SDS011;38480;52.724;6.436;2023-11-19T08:37:16;43.70;;;8.63;;
52586;SDS011;38480;52.724;6.436;2023-11-19T08:39:50;47.87;;;9.63;;
52586;SDS011;38480;52.724;6.436;2023-11-19T08:42:16;50.97;;;8.67;;
52586;SDS011;38480;52.724;6.436;2023-11-19T08:44:42;53.80;;;9.07;;
52586;SDS011;38480;52.724;6.436;2023-11-19T08:47:11;61.07;;;9.07;;
52586;SDS011;38480;52.724;6.436;2023-11-19T08:49:38;51.13;;;8.00;;
52586;SDS011;38480;52.724;6.436;2023-11-19T08:52:04;48.20;;;9.83;;
52586;SDS011;38480;52.724;6.436;2023-11-19T08:54:32;55.57;;;8.23;;
52586;SDS011;38480;52.724;6.436;2023-11-19T08:56:58;53.60;;;8.83;;
52586;SDS011;38480;52.724;6.436;2023-11-19T08:59:28;48.40;;;8.13;;
52586;SDS011;38480;52.724;6.436;2023-11-19T09:01:54;47.03;;;7.80;;
52586;SDS011;38480;52.724;6.436;2023-11-19T09:04:20;47.63;;;8.90;;
52586;SDS011;38480;52.724;6.436;2023-11-19T09:06:47;47.70;;;8.10;;
52586;SDS011;38480;52.724;6.436;2023-11-19T09:09:14;40.43;;;7.50;;
52586;SDS011;38480;52.724;6.436;2023-11-19T09:11:40;48.33;;;8.73;;
52586;SDS011;38480;52.724;6.436;2023-11-19T09:14:06;44.93;;;7.73;;
52586;SDS011;38480;52.724;6.436;2023-11-19T09:16:32;41.70;;;9.10;;
52586;SDS011;38480;52.724;6.436;2023-11-19T09:18:58;53.30;;;10.73;;
52586;SDS011;38480;52.724;6.436;2023-11-19T09:21:25;45.90;;;8.80;;
52586;SDS011;38480;52.724;6.436;2023-11-19T09:23:51;43.20;;;8.90;;
52586;SDS011;38480;52.724;6.436;2023-11-19T09:26:18;42.57;;;6.30;;
52586;SDS011;38480;52.724;6.436;2023-11-19T09:28:44;41.27;;;10.60;;
52586;SDS011;38480;52.724;6.436;2023-11-19T09:31:16;47.13;;;9.43;;
52586;SDS011;38480;52.724;6.436;2023-11-19T09:33:43;48.97;;;8.98;;
52586;SDS011;38480;52.724;6.436;2023-11-19T09:36:09;46.40;;;8.00;;
52586;SDS011;38480;52.724;6.436;2023-11-19T09:38:37;43.13;;;7.90;;
52586;SDS011;38480;52.724;6.436;2023-11-19T09:41:04;38.03;;;7.80;;
52586;SDS011;38480;52.724;6.436;2023-11-19T09:43:33;40.40;;;7.80;;
52586;SDS011;38480;52.724;6.436;2023-11-19T09:46:01;47.67;;;8.17;;
52586;SDS011;38480;52.724;6.436;2023-11-19T09:48:32;49.00;;;8.50;;
52586;SDS011;38480;52.724;6.436;2023-11-19T09:50:59;45.67;;;8.07;;
52586;SDS011;38480;52.724;6.436;2023-11-19T09:53:26;50.80;;;9.37;;
52586;SDS011;38480;52.724;6.436;2023-11-19T09:55:52;43.40;;;7.93;;
52586;SDS011;38480;52.724;6.436;2023-11-19T09:58:19;56.43;;;10.60;;
52586;SDS011;38480;52.724;6.436;2023-11-19T10:00:45;47.63;;;8.30;;
52586;SDS011;38480;52.724;6.436;2023-11-19T10:03:11;42.80;;;7.87;;
52586;SDS011;38480;52.724;6.436;2023-11-19T10:05:38;44.83;;;7.30;;
52586;SDS011;38480;52.724;6.436;2023-11-19T10:08:05;37.90;;;8.80;;
52586;SDS011;38480;52.724;6.436;2023-11-19T10:10:31;36.63;;;7.77;;
52586;SDS011;38480;52.724;6.436;2023-11-19T10:12:57;40.63;;;7.80;;
52586;SDS011;38480;52.724;6.436;2023-11-19T10:15:25;53.20;;;8.67;;
52586;SDS011;38480;52.724;6.436;2023-11-19T10:17:58;48.80;;;10.57;;
52586;SDS011;38480;52.724;6.436;2023-11-19T10:20:25;48.33;;;8.37;;
52586;SDS011;38480;52.724;6.436;2023-11-19T10:22:54;49.90;;;9.53;;
52586;SDS011;38480;52.724;6.436;2023-11-19T10:25:27;46.77;;;8.00;;
52586;SDS011;38480;52.724;6.436;2023-11-19T10:27:54;47.92;;;10.25;;
52586;SDS011;38480;52.724;6.436;2023-11-19T10:30:21;44.23;;;7.83;;
52586;SDS011;38480;52.724;6.436;2023-11-19T10:33:07;44.03;;;6.87;;
52586;SDS011;38480;52.724;6.436;2023-11-19T10:35:37;46.53;;;9.07;;
52586;SDS011;38480;52.724;6.436;2023-11-19T10:38:19;52.83;;;9.73;;
52586;SDS011;38480;52.724;6.436;2023-11-19T10:40:45;48.33;;;7.67;;
52586;SDS011;38480;52.724;6.436;2023-11-19T10:43:12;44.27;;;9.37;;
52586;SDS011;38480;52.724;6.436;2023-11-19T10:45:38;37.43;;;7.20;;
52586;SDS011;38480;52.724;6.436;2023-11-19T10:48:05;39.77;;;8.10;;
52586;SDS011;38480;52.724;6.436;2023-11-19T10:50:35;45.03;;;7.83;;
52586;SDS011;38480;52.724;6.436;2023-11-19T10:53:01;51.33;;;8.97;;
52586;SDS011;38480;52.724;6.436;2023-11-19T10:55:32;40.03;;;8.50;;
52586;SDS011;38480;52.724;6.436;2023-11-19T10:58:03;45.47;;;9.43;;
52586;SDS011;38480;52.724;6.436;2023-11-19T11:00:30;48.13;;;9.37;;
52586;SDS011;38480;52.724;6.436;2023-11-19T11:02:59;53.83;;;9.70;;
52586;SDS011;38480;52.724;6.436;2023-11-19T11:05:26;49.30;;;9.10;;
52586;SDS011;38480;52.724;6.436;2023-11-19T11:07:52;53.73;;;9.37;;
52586;SDS011;38480;52.724;6.436;2023-11-19T11:10:22;39.43;;;7.20;;
52586;SDS011;38480;52.724;6.436;2023-11-19T11:12:51;46.17;;;7.20;;
52586;SDS011;38480;52.724;6.436;2023-11-19T11:15:24;43.47;;;9.80;;
52586;SDS011;38480;52.724;6.436;2023-11-19T11:17:54;49.77;;;9.07;;
52586;SDS011;38480;52.724;6.436;2023-11-19T11:20:23;48.43;;;8.53;;
52586;SDS011;38480;52.724;6.436;2023-11-19T11:22:54;52.40;;;9.03;;
52586;SDS011;38480;52.724;6.436;2023-11-19T11:25:28;49.07;;;9.10;;
52586;SDS011;38480;52.724;6.436;2023-11-19T11:28:05;53.53;;;8.83;;
52586;SDS011;38480;52.724;6.436;2023-11-19T11:38:10;59.23;;;9.33;;
52586;SDS011;38480;52.724;6.436;2023-11-19T11:40:37;55.30;;;9.37;;
52586;SDS011;38480;52.724;6.436;2023-11-19T11:43:03;64.93;;;10.50;;
52586;SDS011;38480;52.724;6.436;2023-11-19T11:45:34;62.83;;;9.40;;
52586;SDS011;38480;52.724;6.436;2023-11-19T11:48:15;57.07;;;9.70;;
52586;SDS011;38480;52.724;6.436;2023-11-19T11:50:49;59.33;;;9.83;;
52586;SDS011;38480;52.724;6.436;2023-11-19T11:58:19;50.07;;;8.63;;
52586;SDS011;38480;52.724;6.436;2023-11-19T12:00:46;60.87;;;9.30;;
52586;SDS011;38480;52.724;6.436;2023-11-19T12:03:12;66.07;;;11.07;;
52586;SDS011;38480;52.724;6.436;2023-11-19T12:05:40;58.00;;;10.00;;
52586;SDS011;38480;52.724;6.436;2023-11-19T12:08:07;59.23;;;9.03;;
52586;SDS011;38480;52.724;6.436;2023-11-19T12:10:45;49.77;;;10.23;;
52586;SDS011;38480;52.724;6.436;2023-11-19T12:13:14;63.73;;;10.37;;
52586;SDS011;38480;52.724;6.436;2023-11-19T12:18:30;60.20;;;9.63;;
52586;SDS011;38480;52.724;6.436;2023-11-19T12:20:57;56.70;;;8.97;;
52586;SDS011;38480;52.724;6.436;2023-11-19T12:23:25;57.70;;;8.63;;
52586;SDS011;38480;52.724;6.436;2023-11-19T12:25:52;59.90;;;9.97;;
52586;SDS011;38480;52.724;6.436;2023-11-19T12:28:18;42.00;;;7.17;;
52586;SDS011;38480;52.724;6.436;2023-11-19T12:30:44;46.13;;;6.87;;
52586;SDS011;38480;52.724;6.436;2023-11-19T12:33:11;51.83;;;7.93;;
52586;SDS011;38480;52.724;6.436;2023-11-19T12:35:40;41.40;;;8.27;;
52586;SDS011;38480;52.724;6.436;2023-11-19T12:38:07;54.67;;;7.63;;
52586;SDS011;38480;52.724;6.436;2023-11-19T12:40:33;40.60;;;7.53;;
52586;SDS011;38480;52.724;6.436;2023-11-19T12:42:59;42.07;;;7.27;;
52586;SDS011;38480;52.724;6.436;2023-11-19T12:45:34;41.53;;;7.13;;
52586;SDS011;38480;52.724;6.436;2023-11-19T12:48:07;32.40;;;7.43;;
52586;SDS011;38480;52.724;6.436;2023-11-19T12:50:50;42.93;;;7.27;;
52586;SDS011;38480;52.724;6.436;2023-11-19T12:53:20;50.43;;;8.73;;
52586;SDS011;38480;52.724;6.436;2023-11-19T12:55:46;48.13;;;7.33;;
52586;SDS011;38480;52.724;6.436;2023-11-19T12:58:31;48.10;;;7.53;;
52586;SDS011;38480;52.724;6.436;2023-11-19T13:01:04;52.90;;;8.17;;
52586;SDS011;38480;52.724;6.436;2023-11-19T13:03:31;39.45;;;7.78;;
52586;SDS011;38480;52.724;6.436;2023-11-19T13:06:01;50.87;;;8.17;;
52586;SDS011;38480;52.724;6.436;2023-11-19T13:08:27;39.00;;;6.67;;
52586;SDS011;38480;52.724;6.436;2023-11-19T13:10:54;44.80;;;8.10;;
52586;SDS011;38480;52.724;6.436;2023-11-19T13:13:20;48.77;;;8.67;;
52586;SDS011;38480;52.724;6.436;2023-11-19T13:15:46;40.73;;;7.53;;
52586;SDS011;38480;52.724;6.436;2023-11-19T13:18:12;36.97;;;6.33;;
52586;SDS011;38480;52.724;6.436;2023-11-19T13:20:41;42.43;;;7.20;;
52586;SDS011;38480;52.724;6.436;2023-11-19T13:23:07;49.83;;;7.43;;
52586;SDS011;38480;52.724;6.436;2023-11-19T13:25:33;48.70;;;7.23;;
52586;SDS011;38480;52.724;6.436;2023-11-19T13:27:59;39.63;;;6.10;;
52586;SDS011;38480;52.724;6.436;2023-11-19T13:30:26;45.47;;;6.63;;
52586;SDS011;38480;52.724;6.436;2023-11-19T13:32:52;43.40;;;8.13;;
52586;SDS011;38480;52.724;6.436;2023-11-19T13:35:20;44.00;;;6.30;;
52586;SDS011;38480;52.724;6.436;2023-11-19T13:37:49;46.20;;;6.93;;
52586;SDS011;38480;52.724;6.436;2023-11-19T13:40:16;51.90;;;7.03;;
52586;SDS011;38480;52.724;6.436;2023-11-19T13:42:44;41.70;;;7.40;;
52586;SDS011;38480;52.724;6.436;2023-11-19T13:45:10;44.40;;;7.57;;
52586;SDS011;38480;52.724;6.436;2023-11-19T13:47:41;49.77;;;7.53;;
52586;SDS011;38480;52.724;6.436;2023-11-19T13:50:11;56.03;;;8.70;;
52586;SDS011;38480;52.724;6.436;2023-11-19T13:52:37;63.33;;;8.37;;
52586;SDS011;38480;52.724;6.436;2023-11-19T13:55:07;58.17;;;6.57;;
52586;SDS011;38480;52.724;6.436;2023-11-19T13:57:34;42.53;;;6.13;;
52586;SDS011;38480;52.724;6.436;2023-11-19T14:00:00;41.43;;;7.23;;
52586;SDS011;38480;52.724;6.436;2023-11-19T14:02:30;48.83;;;6.87;;
52586;SDS011;38480;52.724;6.436;2023-11-19T14:04:56;44.93;;;7.03;;
52586;SDS011;38480;52.724;6.436;2023-11-19T14:07:22;44.93;;;7.70;;
52586;SDS011;38480;52.724;6.436;2023-11-19T14:09:48;49.53;;;8.50;;
52586;SDS011;38480;52.724;6.436;2023-11-19T14:12:15;56.93;;;8.23;;
52586;SDS011;38480;52.724;6.436;2023-11-19T14:14:41;48.80;;;7.33;;
52586;SDS011;38480;52.724;6.436;2023-11-19T14:17:07;50.53;;;8.57;;
52586;SDS011;38480;52.724;6.436;2023-11-19T14:19:33;45.30;;;8.37;;
52586;SDS011;38480;52.724;6.436;2023-11-19T14:21:59;45.13;;;6.93;;
52586;SDS011;38480;52.724;6.436;2023-11-19T14:24:25;37.73;;;6.30;;
52586;SDS011;38480;52.724;6.436;2023-11-19T14:26:51;53.80;;;7.47;;
52586;SDS011;38480;52.724;6.436;2023-11-19T14:29:17;41.13;;;7.23;;
52586;SDS011;38480;52.724;6.436;2023-11-19T14:31:43;42.00;;;9.30;;
52586;SDS011;38480;52.724;6.436;2023-11-19T14:34:09;39.87;;;7.47;;
52586;SDS011;38480;52.724;6.436;2023-11-19T14:36:35;37.27;;;6.97;;
52586;SDS011;38480;52.724;6.436;2023-11-19T14:39:01;51.27;;;7.03;;
52586;SDS011;38480;52.724;6.436;2023-11-19T14:41:28;36.30;;;6.10;;
52586;SDS011;38480;52.724;6.436;2023-11-19T14:43:54;44.27;;;6.03;;
52586;SDS011;38480;52.724;6.436;2023-11-19T14:46:20;36.40;;;5.97;;
52586;SDS011;38480;52.724;6.436;2023-11-19T14:48:46;39.37;;;8.10;;